Flight Track Log - Related Links

Times and Time Zones

All times are in EDT time to prevent confusion due to time zone crossing. See the AAL1459 flight status page for this flight to view local times or setup timezone preferences in your user account.

Time Position Orientation Groundspeed Altitude Reporting Facility
EDT Latitude Longitude Course Direction KTS MPH feet Rate Location/Type
Thu 02:39:07 PM 42.3980 -71.0540 302° West 211 243 2,700  Level FlightAware ADS-B
Thu 02:39:27 PM 42.4080 -71.0740 304° West 226 260 3,400 2,850 Climbing FlightAware ADS-B
Thu 02:39:47 PM 42.4220 -71.1030 303° West 241 277 4,600 3,600 Climbing FlightAware ADS-B
Thu 02:40:02 PM 42.4330 -71.1170 317° Northwest 246 283 5,500 3,000 Climbing FlightAware ADS-B
Thu 02:40:17 PM 42.4500 -71.1280 334° Northwest 263 303 6,100 1,350 Climbing FlightAware ADS-B
Thu 02:40:42 PM 42.4800 -71.1440 339° North 262 302 6,400 1,500 Climbing FlightAware ADS-B
Thu 02:40:57 PM 42.4970 -71.1520 341° North 258 297 7,100 3,200 Climbing FlightAware ADS-B
Thu 02:41:27 PM 42.5310 -71.1690 340° North 262 302 8,800 3,600 Climbing FlightAware ADS-B
Thu 02:41:37 PM 42.5440 -71.1750 341° North 260 299 9,500 2,945 Climbing FlightAware ADS-B
Thu 02:42:22 PM 42.5980 -71.2000 341° North 290 334 11,500 2,267 Climbing FlightAware ADS-B
Thu 02:43:07 PM 42.6590 -71.2270 342° North 326 375 12,900 2,329 Climbing FlightAware ADS-B
Thu 02:43:47 PM 42.7190 -71.2520 343° North 334 384 14,800 2,836 Climbing FlightAware ADS-B
Thu 02:44:02 PM 42.7390 -71.2650 334° Northwest 327 376 15,500 2,800 Climbing FlightAware ADS-B
Thu 02:44:47 PM 42.7720 -71.3410 301° West 318 366 17,600 2,600 Climbing FlightAware ADS-B
Thu 02:45:32 PM 42.7760 -71.4330 273° West 328 377 19,400 2,533 Climbing FlightAware ADS-B
Thu 02:46:17 PM 42.7820 -71.5250 275° West 333 383 21,400 2,400 Climbing FlightAware ADS-B
Thu 02:47:02 PM 42.7900 -71.6270 276° West 342 394 23,000 1,875 Climbing FlightAware ADS-B
Thu 02:47:37 PM 42.7980 -71.7000 279° West 340 391 23,900 1,650 Climbing FlightAware ADS-B
Thu 02:48:22 PM 42.8100 -71.7970 280° West 352 405 25,200 1,800 Climbing FlightAware ADS-B
Thu 02:49:07 PM 42.8200 -71.8950 278° West 356 410 26,600 1,694 Climbing FlightAware ADS-B
Thu 02:49:47 PM 42.8290 -71.9850 278° West 359 413 27,600 1,500 Climbing FlightAware ADS-B
Thu 02:50:27 PM 42.8380 -72.0740 278° West 365 420 28,600 1,482 Climbing FlightAware ADS-B
Thu 02:51:12 PM 42.8480 -72.1800 277° West 371 427 29,700 1,624 Climbing FlightAware ADS-B
Thu 02:51:52 PM 42.8570 -72.2730 278° West 365 420 30,900 1,694 Climbing FlightAware ADS-B
Thu 02:52:37 PM 42.8660 -72.3720 277° West 363 418 32,100 1,482 Climbing FlightAware ADS-B
Thu 02:53:17 PM 42.8750 -72.4600 278° West 359 413 33,000 1,350 Climbing FlightAware ADS-B
Thu 02:53:57 PM 42.8830 -72.5520 277° West 361 415 33,900 1,271 Climbing FlightAware ADS-B
Thu 02:54:42 PM 42.8930 -72.6540 278° West 361 415 34,800 1,140 Climbing FlightAware ADS-B
Thu 02:55:37 PM 42.9040 -72.7760 277° West 359 413 35,800 1,011 Climbing FlightAware ADS-B
Thu 02:56:17 PM 42.9110 -72.8630 276° West 361 415 36,400 494 Climbing FlightAware ADS-B
Thu 02:57:02 PM 42.9190 -72.9600 276° West 362 417 36,500 71 Climbing FlightAware ADS-B
Thu 02:57:42 PM 42.9250 -73.0370 276° West 362 417 36,500  Level FlightAware ADS-B
Thu 02:58:22 PM 42.9310 -73.1140 276° West 362 417 36,500 1,059 Level FlightAware ADS-B
Thu 02:59:07 PM 42.9450 -73.2480 278° West 364 419 38,000 1,059 Climbing FlightAware ADS-B
Thu 02:59:47 PM 42.9520 -73.3470 276° West 361 415 38,000  Level FlightAware ADS-B
Thu 03:00:27 PM 42.9600 -73.4350 277° West 361 415 38,000  Level FlightAware ADS-B
Thu 03:01:12 PM 42.9690 -73.5230 278° West 361 415 38,000  Level FlightAware ADS-B
Thu 03:01:52 PM 42.9770 -73.6000 278° West 361 415 38,000  Level FlightAware ADS-B
Thu 03:02:32 PM 42.9850 -73.6770 278° West 361 415 38,000  Level FlightAware ADS-B
Thu 03:03:17 PM 42.9920 -73.8150 274° West 357 411 38,000  Level FlightAware ADS-B
Thu 03:04:02 PM 43.0010 -73.9180 277° West 364 419 38,000  Level FlightAware ADS-B
Thu 03:04:42 PM 43.0080 -74.0100 276° West 367 422 38,000  Level FlightAware ADS-B
Thu 03:05:17 PM 43.0140 -74.0870 276° West 367 422 38,000  Level FlightAware ADS-B
Thu 03:06:07 PM 43.0240 -74.2100 276° West 365 420 38,000  Level FlightAware ADS-B
Thu 03:06:57 PM 43.0310 -74.3170 275° West 365 420 38,000  Level FlightAware ADS-B
Thu 03:07:47 PM 43.0380 -74.4150 276° West 365 420 38,000  Level FlightAware ADS-B
Thu 03:08:27 PM 43.0470 -74.5190 277° West 38,000  Level FlightAware ADS-B
Thu 03:09:22 PM 43.0570 -74.6510 276° West 364 419 38,000  Level FlightAware ADS-B
Thu 03:09:52 PM 43.0620 -74.7130 276° West 363 418 38,000  Level FlightAware ADS-B
Thu 03:10:32 PM 43.0680 -74.8060 275° West 362 417 38,000  Level FlightAware ADS-B
Thu 03:11:12 PM 43.0750 -74.8970 276° West 362 417 38,000  Level FlightAware ADS-B
Thu 03:11:57 PM 43.0820 -75.0040 275° West 364 419 38,000  Level FlightAware ADS-B
Thu 03:12:37 PM 43.0890 -75.0950 276° West 364 419 38,000  Level FlightAware ADS-B
Thu 03:13:22 PM 43.0960 -75.1980 275° West 365 420 38,000  Level FlightAware ADS-B
Thu 03:14:02 PM 43.1020 -75.2910 275° West 365 420 38,000  Level FlightAware ADS-B
Thu 03:14:47 PM 43.1090 -75.3900 276° West 366 421 38,000  Level FlightAware ADS-B
Thu 03:15:27 PM 43.1150 -75.4810 275° West 367 422 38,000  Level FlightAware ADS-B
Thu 03:16:12 PM 43.1220 -75.5840 275° West 368 423 38,000  Level FlightAware ADS-B
Thu 03:16:52 PM 43.1280 -75.6830 275° West 369 425 38,000  Level FlightAware ADS-B
Thu 03:17:32 PM 43.1340 -75.7750 275° West 368 423 38,000  Level FlightAware ADS-B
Thu 03:18:02 PM 43.1380 -75.8440 275° West 366 421 38,000  Level FlightAware ADS-B
Thu 03:18:42 PM 43.1440 -75.9370 275° West 364 419 38,000  Level FlightAware ADS-B
Thu 03:19:27 PM 43.1500 -76.0380 275° West 362 417 38,000  Level FlightAware ADS-B
Thu 03:20:07 PM 43.1560 -76.1300 275° West 361 415 38,000  Level FlightAware ADS-B
Thu 03:21:02 PM 43.1560 -76.2550 270° West 359 413 38,000  Level FlightAware ADS-B
Thu 03:21:47 PM 43.1480 -76.3560 264° West 356 410 38,000  Level FlightAware ADS-B
Thu 03:22:27 PM 43.1400 -76.4450 263° West 355 409 38,000  Level FlightAware ADS-B
Thu 03:23:12 PM 43.1320 -76.5400 263° West 356 410 38,000  Level FlightAware ADS-B
Thu 03:23:52 PM 43.1260 -76.6330 265° West 357 411 38,000  Level FlightAware ADS-B
Thu 03:24:37 PM 43.1270 -76.7300 271° West 358 412 38,000  Level FlightAware ADS-B
Thu 03:25:17 PM 43.1270 -76.8240 270° West 358 412 38,000  Level FlightAware ADS-B
Thu 03:25:52 PM 43.1280 -76.9070 271° West 358 412 38,000  Level FlightAware ADS-B
Thu 03:26:32 PM 43.1280 -76.9950 270° West 359 413 38,000  Level FlightAware ADS-B
Thu 03:27:12 PM 43.1290 -77.0890 271° West 361 415 38,000  Level FlightAware ADS-B
Thu 03:27:57 PM 43.1290 -77.1910 270° West 362 417 38,000  Level FlightAware ADS-B
Thu 03:28:37 PM 43.1300 -77.2820 271° West 364 419 38,000  Level FlightAware ADS-B
Thu 03:29:22 PM 43.1300 -77.3860 270° West 363 418 38,000  Level FlightAware ADS-B
Thu 03:29:57 PM 43.1300 -77.4610 270° West 364 419 38,000  Level FlightAware ADS-B
Thu 03:30:42 PM 43.1300 -77.5670 270° West 364 419 38,000  Level FlightAware ADS-B
Thu 03:31:22 PM 43.1300 -77.6610 270° West 364 419 38,000  Level FlightAware ADS-B
Thu 03:32:07 PM 43.1300 -77.7630 270° West 364 419 38,000  Level FlightAware ADS-B
Thu 03:32:52 PM 43.1300 -77.8660 270° West 364 419 38,000  Level FlightAware ADS-B
Thu 03:33:47 PM 43.1300 -77.9910 270° West 365 420 38,000  Level FlightAware ADS-B
Thu 03:34:27 PM 43.1290 -78.0860 269° West 365 420 38,000  Level FlightAware ADS-B
Thu 03:35:12 PM 43.1290 -78.1890 270° West 364 419 38,000  Level FlightAware ADS-B
Thu 03:35:52 PM 43.1280 -78.2800 269° West 364 419 38,000  Level FlightAware ADS-B
Thu 03:36:37 PM 43.1280 -78.3850 270° West 364 419 38,000  Level FlightAware ADS-B
Thu 03:37:17 PM 43.1270 -78.4770 269° West 363 418 38,000  Level FlightAware ADS-B
Thu 03:37:57 PM 43.1260 -78.5690 269° West 364 419 38,000  Level FlightAware ADS-B
Thu 03:38:42 PM 43.1260 -78.6700 270° West 364 419 38,000  Level FlightAware ADS-B
Thu 03:39:22 PM 43.1250 -78.7630 269° West 365 420 38,000  Level FlightAware ADS-B
Thu 03:40:07 PM 43.1230 -78.8680 269° West 365 420 38,000  Level FlightAware ADS-B
Thu 03:40:47 PM 43.1220 -78.9590 269° West 364 419 38,000  Level FlightAware ADS-B
Thu 03:41:27 PM 43.1210 -79.0520 269° West 363 418 38,000  Level FlightAware ADS-B
Thu 03:42:12 PM 43.1200 -79.1540 269° West 363 418 38,000  Level FlightAware ADS-B
Thu 03:42:52 PM 43.1190 -79.2460 269° West 365 420 38,000  Level FlightAware ADS-B
Thu 03:43:37 PM 43.1170 -79.3500 269° West 365 420 38,000  Level FlightAware ADS-B
Thu 03:44:17 PM 43.1160 -79.4420 269° West 365 420 38,000  Level FlightAware ADS-B
Thu 03:44:57 PM 43.1140 -79.5330 268° West 364 419 38,000  Level FlightAware ADS-B
Thu 03:45:42 PM 43.1130 -79.6320 269° West 362 417 38,000  Level FlightAware ADS-B
Thu 03:46:22 PM 43.1110 -79.7280 268° West 362 417 38,000  Level FlightAware ADS-B
Thu 03:47:07 PM 43.1090 -79.8310 269° West 362 417 38,000  Level FlightAware ADS-B
Thu 03:47:32 PM 43.1080 -79.8870 269° West 362 417 38,000  Level FlightAware ADS-B
Thu 03:48:12 PM 43.1060 -79.9800 268° West 363 418 38,000  Level FlightAware ADS-B
Thu 03:48:57 PM 43.1040 -80.0830 269° West 365 420 38,000  Level FlightAware ADS-B
Thu 03:49:37 PM 43.1020 -80.1750 268° West 367 422 38,000  Level FlightAware ADS-B
Thu 03:50:22 PM 43.1000 -80.2800 269° West 369 425 38,000  Level FlightAware ADS-B
Thu 03:51:02 PM 43.0970 -80.3710 267° West 370 426 38,000  Level FlightAware ADS-B
Thu 03:51:47 PM 43.0950 -80.4790 269° West 370 426 38,000  Level FlightAware ADS-B
Thu 03:52:27 PM 43.0920 -80.5710 267° West 372 428 38,000  Level FlightAware ADS-B
Thu 03:53:07 PM 43.0900 -80.6670 268° West 373 429 38,000  Level FlightAware ADS-B
Thu 03:53:52 PM 43.0870 -80.7710 268° West 375 432 38,000  Level FlightAware ADS-B
Thu 03:54:32 PM 43.0840 -80.8680 268° West 377 434 38,000  Level FlightAware ADS-B
Thu 03:55:17 PM 43.0820 -80.9700 268° West 376 433 38,000  Level FlightAware ADS-B
Thu 03:55:57 PM 43.0790 -81.0670 268° West 375 432 38,000  Level FlightAware ADS-B
Thu 03:56:37 PM 43.0760 -81.1630 268° West 375 432 38,000  Level FlightAware ADS-B
Thu 03:57:22 PM 43.0720 -81.2690 267° West 374 430 38,000  Level FlightAware ADS-B
Thu 03:58:02 PM 43.0690 -81.3620 268° West 373 429 38,000  Level FlightAware ADS-B
Thu 03:58:47 PM 43.0660 -81.4690 268° West 373 429 38,000  Level FlightAware ADS-B
Thu 03:59:27 PM 43.0630 -81.5610 267° West 374 430 38,000  Level FlightAware ADS-B
Thu 04:00:07 PM 43.0590 -81.6580 267° West 374 430 38,000  Level FlightAware ADS-B
Thu 04:00:52 PM 43.0560 -81.7630 268° West 373 429 38,000  Level FlightAware ADS-B
Thu 04:01:32 PM 43.0520 -81.8540 267° West 373 429 38,000  Level FlightAware ADS-B
Thu 04:02:12 PM 43.0490 -81.9560 268° West 374 430 38,000  Level FlightAware ADS-B
Thu 04:02:57 PM 43.0440 -82.0630 266° West 376 433 38,000  Level FlightAware ADS-B
Thu 04:03:37 PM 43.0410 -82.1430 267° West 376 433 38,000  Level FlightAware ADS-B
Thu 04:04:22 PM 43.0360 -82.2640 267° West 378 435 38,000  Level FlightAware ADS-B
Thu 04:05:02 PM 43.0330 -82.3550 267° West 381 438 38,000  Level FlightAware ADS-B
Thu 04:05:42 PM 43.0290 -82.4540 267° West 379 436 38,000  Level FlightAware ADS-B
Thu 04:06:27 PM 43.0250 -82.5390 266° West 379 436 38,000 -494 Level FlightAware ADS-B
Thu 04:07:07 PM 43.0210 -82.6380 267° West 382 440 37,300 -947 Descending FlightAware ADS-B
Thu 04:08:02 PM 43.0150 -82.7670 266° West 388 447 36,500 -780 Descending FlightAware ADS-B
Thu 04:08:47 PM 43.0100 -82.8810 267° West 394 453 36,000 -375 Descending FlightAware ADS-B
Thu 04:09:22 PM 43.0050 -82.9740 266° West 393 452 36,000  Level FlightAware ADS-B
Thu 04:10:12 PM 43.0000 -83.0910 267° West 393 452 36,000  Level FlightAware ADS-B
Thu 04:10:47 PM 42.9950 -83.1840 266° West 393 452 36,000  Level FlightAware ADS-B
Thu 04:11:32 PM 42.9910 -83.2810 267° West 392 451 36,000  Level FlightAware ADS-B
Thu 04:12:07 PM 42.9860 -83.3810 266° West 392 451 36,000 -626 Level FlightAware ADS-B
Thu 04:13:27 PM 42.9750 -83.5910 266° West 398 458 34,800 -900 Descending FlightAware ADS-B
Thu 04:14:07 PM 42.9700 -83.6900 266° West 400 460 34,200 -988 Descending FlightAware ADS-B
Thu 04:14:52 PM 42.9610 -83.8130 264° West 405 466 33,400 -988 Descending FlightAware ADS-B
Thu 04:15:32 PM 42.9510 -83.9110 262° West 409 471 32,800 -975 Descending FlightAware ADS-B
Thu 04:16:12 PM 42.9410 -84.0160 263° West 414 476 32,100 -565 Descending FlightAware ADS-B
Thu 04:16:57 PM 42.9300 -84.1310 263° West 415 478 32,000 -71 Descending FlightAware ADS-B
Thu 04:17:37 PM 42.9190 -84.2360 262° West 415 478 32,000  Level FlightAware ADS-B
Thu 04:18:17 PM 42.9090 -84.3390 262° West 414 476 32,000  Level FlightAware ADS-B
Thu 04:19:02 PM 42.8970 -84.4550 262° West 413 475 32,000  Level FlightAware ADS-B
Thu 04:19:42 PM 42.8870 -84.5550 262° West 413 475 32,000  Level FlightAware ADS-B
Thu 04:20:27 PM 42.8750 -84.6750 262° West 414 476 32,000  Level FlightAware ADS-B
Thu 04:21:07 PM 42.8640 -84.7760 262° West 414 476 32,000  Level FlightAware ADS-B
Thu 04:21:47 PM 42.8540 -84.8800 263° West 415 478 32,000  Level FlightAware ADS-B
Thu 04:22:32 PM 42.8420 -84.9930 262° West 415 478 32,000  Level FlightAware ADS-B
Thu 04:23:17 PM 42.8290 -85.1120 262° West 416 479 32,000  Level FlightAware ADS-B
Thu 04:23:57 PM 42.8170 -85.2160 261° West 416 479 32,000 -150 Level FlightAware ADS-B
Thu 04:24:37 PM 42.8060 -85.3190 262° West 417 480 31,800 -1,553 Descending FlightAware ADS-B
Thu 04:25:22 PM 42.7940 -85.4330 262° West 412 474 29,800 -2,471 Descending FlightAware ADS-B
Thu 04:26:02 PM 42.7800 -85.5370 260° West 404 465 28,300 -2,314 Descending FlightAware ADS-B
Thu 04:26:32 PM 42.7660 -85.6110 256° West 397 457 27,100 -2,571 Descending FlightAware ADS-B
Thu 04:27:12 PM 42.7490 -85.7080 257° West 393 452 25,300 -2,700 Descending FlightAware ADS-B
Thu 04:27:52 PM 42.7320 -85.8040 256° West 397 457 23,500 -2,400 Descending FlightAware ADS-B
Thu 04:28:37 PM 42.7130 -85.9080 256° West 393 452 21,900 -2,118 Descending FlightAware ADS-B
Thu 04:29:17 PM 42.6950 -86.0050 256° West 385 443 20,500 -1,412 Descending FlightAware ADS-B
Thu 04:30:02 PM 42.6750 -86.1120 256° West 378 435 19,900 -1,059 Descending FlightAware ADS-B
Thu 04:30:42 PM 42.6590 -86.1990 256° West 374 430 19,000 -1,425 Descending FlightAware ADS-B
Thu 04:31:22 PM 42.6420 -86.2930 256° West 369 425 18,000 -1,482 Descending FlightAware ADS-B
Thu 04:32:07 PM 42.6230 -86.3920 255° West 367 422 16,900 -1,482 Descending FlightAware ADS-B
Thu 04:32:47 PM 42.6070 -86.4820 256° West 365 420 15,900 -1,482 Descending FlightAware ADS-B
Thu 04:33:32 PM 42.5890 -86.5760 255° West 352 405 14,800 -1,482 Descending FlightAware ADS-B
Thu 04:34:12 PM 42.5740 -86.6560 256° West 343 395 13,800 -1,074 Descending FlightAware ADS-B
Thu 04:35:07 PM 42.5520 -86.7680 255° West 340 391 13,100 -1,326 Descending FlightAware ADS-B
Thu 04:35:47 PM 42.5250 -86.8550 247° West 336 387 11,700 -1,624 Descending FlightAware ADS-B
Thu 04:36:32 PM 42.5010 -86.9450 250° West 337 388 10,800 -1,059 Descending FlightAware ADS-B
Thu 04:37:12 PM 42.4800 -87.0230 250° West 341 392 10,200 -738 Descending FlightAware ADS-B
Thu 04:37:37 PM 42.4670 -87.0680 249° West 330 380 10,000 -218 Descending FlightAware ADS-B
Thu 04:38:07 PM 42.4530 -87.1210 250° West 297 342 10,000 -500 Level FlightAware ADS-B
Thu 04:38:37 PM 42.4380 -87.1750 249° West 281 323 9,500 -933 Descending FlightAware ADS-B
Thu 04:38:52 PM 42.4310 -87.2020 251° West 277 319 9,300 -750 Descending FlightAware ADS-B
Thu 04:39:17 PM 42.4200 -87.2410 249° West 277 319 9,000 -327 Descending FlightAware ADS-B
Thu 04:39:47 PM 42.4060 -87.2900 249° West 273 314 9,000  Level FlightAware ADS-B
Thu 04:40:17 PM 42.3930 -87.3380 250° West 272 313 9,000  Level FlightAware ADS-B
Thu 04:40:42 PM 42.3830 -87.3760 250° West 273 314 9,000  Level FlightAware ADS-B
Thu 04:41:12 PM 42.3700 -87.4230 249° West 275 316 9,000 -100 Level FlightAware ADS-B
Thu 04:41:42 PM 42.3540 -87.4720 246° West 276 318 8,900 -764 Descending FlightAware ADS-B
Thu 04:42:07 PM 42.3320 -87.5060 229° Southwest 280 322 8,300 -1,418 Descending FlightAware ADS-B
Thu 04:42:37 PM 42.3060 -87.5440 227° Southwest 282 325 7,600 -1,309 Descending FlightAware ADS-B
Thu 04:43:02 PM 42.2830 -87.5770 227° Southwest 278 320 7,100 -655 Descending FlightAware ADS-B
Thu 04:43:32 PM 42.2550 -87.6100 221° Southwest 272 313 7,000 -545 Descending FlightAware ADS-B
Thu 04:43:57 PM 42.2320 -87.6360 220° Southwest 271 312 6,600 -1,309 Descending FlightAware ADS-B
Thu 04:44:27 PM 42.2010 -87.6700 219° Southwest 274 315 5,800 -1,600 Descending FlightAware ADS-B
Thu 04:44:57 PM 42.1720 -87.7030 220° Southwest 266 306 5,000 -1,418 Descending FlightAware ADS-B
Thu 04:45:22 PM 42.1490 -87.7280 219° Southwest 255 293 4,500 -1,200 Descending FlightAware ADS-B
Thu 04:45:52 PM 42.1240 -87.7560 220° Southwest 228 262 3,900 -1,333 Descending FlightAware ADS-B
Thu 04:46:07 PM 42.1120 -87.7700 221° Southwest 216 249 3,500 -1,050 Descending FlightAware ADS-B
Thu 04:46:32 PM 42.0950 -87.7880 218° Southwest 203 234 3,200 -1,091 Descending FlightAware ADS-B
Thu 04:47:02 PM 42.0720 -87.8150 221° Southwest 203 234 2,500 -1,200 Descending FlightAware ADS-B
Thu 04:47:27 PM 42.0550 -87.8340 220° Southwest 196 226 2,100 -900 Descending FlightAware ADS-B
Thu 04:47:42 PM 42.0450 -87.8440 217° Southwest 183 211 1,900 -900 Descending FlightAware ADS-B
Thu 04:48:07 PM 42.0300 -87.8610 220° Southwest 156 180 1,500 -933 Descending FlightAware ADS-B
Thu 04:48:27 PM 42.0180 -87.8740 219° Southwest 149 171 1,200 -800 Descending FlightAware ADS-B
Thu 04:48:52 PM 42.0050 -87.8880 219° Southwest 148 170 900 -800 Descending FlightAware ADS-B
Thu 04:49:12 PM 41.9950 -87.9000 222° Southwest 149 171 600 -900 Descending FlightAware ADS-B

Login

Don't have an account? Register now (free) for customized features, flight alerts, and more!